Time;durP1;ratioP1;P1;durP2;ratioP2;P2;SDS_P1;SDS_P2;PMS_P1;PMS_P2;Temp;Humidity;BMP_temperature;BMP_pressure;BME280_temperature;BME280_humidity;BME280_pressure;Samples;Min_cycle;Max_cycle;Signal;HPM_P1;HPM_P2
2021/04/01 00:01:16;;;;;;;18.00;8.27;;;11.40;96.60;;;;;;5052295;28;20439;-69
2021/04/01 00:03:45;;;;;;;17.70;8.07;;;11.60;95.20;;;;;;5052404;28;20443;-68
2021/04/01 00:06:12;;;;;;;19.57;8.13;;;11.60;96.50;;;;;;5051774;28;20455;-69
2021/04/01 00:08:39;;;;;;;16.53;8.20;;;11.60;95.50;;;;;;5051896;28;20814;-69
2021/04/01 00:11:06;;;;;;;17.37;8.03;;;11.70;94.40;;;;;;5052062;28;21007;-69
2021/04/01 00:13:32;;;;;;;26.70;8.13;;;11.80;94.20;;;;;;5052173;28;20444;-69
2021/04/01 00:15:59;;;;;;;13.63;7.83;;;11.70;94.40;;;;;;5050285;28;20447;-69
2021/04/01 00:18:25;;;;;;;20.50;7.90;;;11.70;94.20;;;;;;5051723;28;20490;-69
2021/04/01 00:20:51;;;;;;;15.50;8.10;;;11.70;94.00;;;;;;5051967;28;20444;-70
2021/04/01 00:23:18;;;;;;;21.13;7.93;;;11.70;93.80;;;;;;5051972;28;20444;-69
2021/04/01 00:25:44;;;;;;;20.47;8.07;;;11.60;95.00;;;;;;5051383;28;20451;-68
2021/04/01 00:28:10;;;;;;;15.83;8.00;;;11.50;95.80;;;;;;5051573;28;20467;-69
2021/04/01 00:30:36;;;;;;;17.00;7.37;;;11.50;94.90;;;;;;5051781;28;20457;-69
2021/04/01 00:33:04;;;;;;;17.30;7.77;;;11.50;95.20;;;;;;5050926;28;20456;-68
2021/04/01 00:35:30;;;;;;;17.60;8.17;;;11.50;95.00;;;;;;5051135;28;20443;-69
2021/04/01 00:37:56;;;;;;;15.90;7.90;;;11.50;95.20;;;;;;5051602;28;20474;-69
2021/04/01 00:40:24;;;;;;;17.53;8.13;;;11.50;95.40;;;;;;5051857;28;20458;-68
2021/04/01 00:42:50;;;;;;;16.33;8.23;;;11.40;95.70;;;;;;5052083;28;20452;-69
2021/04/01 00:45:17;;;;;;;14.73;7.60;;;11.30;96.00;;;;;;5051234;28;20781;-69
2021/04/01 00:47:46;;;;;;;20.63;9.10;;;11.00;98.50;;;;;;5051207;28;20483;-68
2021/04/01 00:50:17;;;;;;;15.93;8.07;;;10.80;99.10;;;;;;5051423;28;20505;-69
2021/04/01 00:52:43;;;;;;;15.47;7.77;;;10.90;97.90;;;;;;5051543;28;20479;-68
2021/04/01 00:55:11;;;;;;;14.30;8.10;;;11.00;97.20;;;;;;5050875;28;20527;-68
2021/04/01 00:57:39;;;;;;;14.30;8.17;;;11.00;97.50;;;;;;5051032;28;20471;-69
2021/04/01 01:00:08;;;;;;;18.93;8.80;;;11.10;97.90;;;;;;5051173;28;20448;-69
2021/04/01 01:02:35;;;;;;;17.70;8.40;;;11.00;98.20;;;;;;5051369;28;20443;-69
2021/04/01 01:05:01;;;;;;;16.60;8.20;;;11.10;97.40;;;;;;5050636;28;20951;-70
2021/04/01 01:07:28;;;;;;;15.27;8.23;;;11.10;97.40;;;;;;5050949;28;20443;-68
2021/04/01 01:09:55;;;;;;;18.23;9.00;;;10.90;98.50;;;;;;5051128;28;20455;-69
2021/04/01 01:12:21;;;;;;;15.97;8.40;;;11.00;98.30;;;;;;5051050;28;20504;-69
2021/04/01 01:14:47;;;;;;;15.63;7.70;;;11.00;97.30;;;;;;5049774;28;20448;-69
2021/04/01 01:17:15;;;;;;;13.53;7.60;;;11.10;97.10;;;;;;5050177;28;20473;-69
2021/04/01 01:19:41;;;;;;;15.67;7.97;;;11.10;97.00;;;;;;5051026;28;20452;-69
2021/04/01 01:22:09;;;;;;;19.03;8.40;;;11.00;97.00;;;;;;5050948;28;20470;-69
2021/04/01 01:24:36;;;;;;;16.23;7.47;;;10.90;97.20;;;;;;5050990;28;20470;-69
2021/04/01 01:27:04;;;;;;;14.23;8.13;;;10.90;97.20;;;;;;5049857;28;20458;-68
2021/04/01 01:29:31;;;;;;;19.37;8.03;;;10.80;97.80;;;;;;5050608;28;20472;-69
2021/04/01 01:31:58;;;;;;;17.20;8.23;;;10.80;97.30;;;;;;5050758;28;20480;-69
2021/04/01 01:34:24;;;;;;;16.90;7.90;;;10.90;97.10;;;;;;5050586;28;20436;-69
2021/04/01 01:36:51;;;;;;;13.97;7.53;;;10.80;97.80;;;;;;5049702;28;20472;-69
2021/04/01 01:39:18;;;;;;;16.20;7.90;;;10.70;98.20;;;;;;5050377;28;20494;-69
2021/04/01 01:41:44;;;;;;;12.70;7.43;;;10.60;98.60;;;;;;5050446;28;20514;-68
2021/04/01 01:44:11;;;;;;;16.27;8.33;;;10.40;99.70;;;;;;5049441;28;20439;-69
2021/04/01 01:46:37;;;;;;;16.47;8.67;;;10.40;99.50;;;;;;5049782;28;20455;-69
2021/04/01 01:49:03;;;;;;;15.33;7.80;;;10.50;99.50;;;;;;5049595;28;20475;-68
2021/04/01 01:51:30;;;;;;;18.10;8.63;;;10.40;99.70;;;;;;5050104;28;20480;-69
2021/04/01 01:53:57;;;;;;;16.80;8.37;;;10.40;99.70;;;;;;5050438;28;20452;-68
2021/04/01 01:56:25;;;;;;;17.40;8.40;;;10.50;99.20;;;;;;5049612;28;20454;-69
2021/04/01 01:58:53;;;;;;;13.03;7.80;;;10.40;99.70;;;;;;5049744;28;20470;-69
2021/04/01 02:01:21;;;;;;;15.03;8.00;;;10.30;99.70;;;;;;5050060;28;20440;-69
2021/04/01 02:03:47;;;;;;;15.90;7.93;;;10.40;99.70;;;;;;5050136;28;20945;-69
2021/04/01 02:06:15;;;;;;;14.03;8.10;;;10.30;99.70;;;;;;5049448;28;20940;-69
2021/04/01 02:08:41;;;;;;;18.83;7.87;;;10.30;99.70;;;;;;5049834;28;20613;-68
2021/04/01 02:11:08;;;;;;;12.50;7.60;;;10.20;99.70;;;;;;5049781;28;20483;-69
2021/04/01 02:13:35;;;;;;;17.67;8.27;;;10.20;99.70;;;;;;5050055;28;20451;-69
2021/04/01 02:16:02;;;;;;;15.30;8.07;;;10.10;99.70;;;;;;5048128;28;20446;-69
2021/04/01 02:18:30;;;;;;;13.93;8.17;;;10.10;99.70;;;;;;5049496;28;20464;-69
2021/04/01 02:20:57;;;;;;;24.67;7.50;;;10.10;99.70;;;;;;5049843;28;20948;-69
2021/04/01 02:23:25;;;;;;;14.80;7.20;;;10.10;99.70;;;;;;5049553;28;20475;-70
2021/04/01 02:25:52;;;;;;;13.40;7.83;;;10.00;99.70;;;;;;5049152;28;20443;-69
2021/04/01 02:28:20;;;;;;;13.23;7.70;;;9.90;99.70;;;;;;5049149;28;20479;-68
2021/04/01 02:30:48;;;;;;;14.70;7.83;;;9.90;99.70;;;;;;5049528;28;20534;-69
2021/04/01 02:33:16;;;;;;;14.90;7.63;;;9.90;99.70;;;;;;5049450;28;20443;-69
2021/04/01 02:35:43;;;;;;;13.87;7.43;;;9.90;99.70;;;;;;5048999;28;20508;-68
2021/04/01 02:38:09;;;;;;;13.13;7.20;;;9.90;99.70;;;;;;5049291;28;20467;-69
2021/04/01 02:40:36;;;;;;;19.13;8.00;;;9.90;99.70;;;;;;5049703;28;20714;-69
2021/04/01 02:43:03;;;;;;;13.77;7.13;;;9.80;99.70;;;;;;5049288;28;20451;-67
2021/04/01 02:45:29;;;;;;;13.97;7.50;;;9.80;99.70;;;;;;5048953;28;20443;-69
2021/04/01 02:47:56;;;;;;;17.40;8.60;;;9.80;99.70;;;;;;5048891;28;20479;-69
2021/04/01 02:50:23;;;;;;;13.50;7.43;;;9.70;99.70;;;;;;5049418;28;20894;-69
2021/04/01 02:52:49;;;;;;;18.27;7.87;;;9.70;99.70;;;;;;5049293;28;20479;-69
2021/04/01 02:55:15;;;;;;;16.23;7.33;;;9.70;99.70;;;;;;5048619;28;20451;-70
2021/04/01 02:57:42;;;;;;;12.70;7.40;;;9.90;99.70;;;;;;5048861;28;20526;-69
2021/04/01 03:00:12;;;;;;;15.87;7.47;;;9.90;99.70;;;;;;5049318;28;20447;-69
2021/04/01 03:02:41;;;;;;;15.90;7.43;;;9.90;99.70;;;;;;5049234;28;20439;-69
2021/04/01 03:05:11;;;;;;;14.37;7.40;;;9.70;99.70;;;;;;5048731;28;20444;-69
2021/04/01 03:07:38;;;;;;;20.83;8.10;;;9.60;99.70;;;;;;5048702;28;20660;-69
2021/04/01 03:10:06;;;;;;;13.30;7.60;;;9.80;99.70;;;;;;5049145;28;20445;-69
2021/04/01 03:12:32;;;;;;;15.50;7.90;;;9.80;99.70;;;;;;5048885;28;20479;-69
2021/04/01 03:14:58;;;;;;;14.53;7.50;;;9.80;99.70;;;;;;5047251;28;20828;-68
2021/04/01 03:17:25;;;;;;;14.83;7.63;;;9.80;99.70;;;;;;5048738;28;20493;-68
2021/04/01 03:19:51;;;;;;;16.07;7.67;;;9.90;99.70;;;;;;5049196;28;20968;-68
2021/04/01 03:22:17;;;;;;;16.50;7.77;;;9.80;99.70;;;;;;5049226;28;20546;-68
2021/04/01 03:24:44;;;;;;;18.63;7.47;;;9.70;99.70;;;;;;5049077;28;20447;-66
2021/04/01 03:27:10;;;;;;;13.80;7.30;;;9.70;99.70;;;;;;5048059;28;20444;-68
2021/04/01 03:29:37;;;;;;;17.17;7.60;;;9.60;99.70;;;;;;5049048;28;20456;-68
2021/04/01 03:32:04;;;;;;;15.83;8.00;;;9.60;99.70;;;;;;5048896;28;21000;-66
2021/04/01 03:34:30;;;;;;;18.50;8.17;;;9.50;99.70;;;;;;5048928;28;20447;-68
2021/04/01 03:36:56;;;;;;;13.80;7.60;;;9.50;99.70;;;;;;5048179;28;20752;-68
2021/04/01 03:39:23;;;;;;;12.93;7.33;;;9.60;99.70;;;;;;5048565;28;21020;-68
2021/04/01 03:41:50;;;;;;;15.03;7.60;;;9.60;99.70;;;;;;5048851;28;20451;-67
2021/04/01 03:44:16;;;;;;;15.53;7.30;;;9.60;99.70;;;;;;5048819;28;20443;-67
2021/04/01 03:46:42;;;;;;;12.30;7.40;;;9.70;99.70;;;;;;5048031;28;20658;-67
2021/04/01 03:49:08;;;;;;;15.13;7.30;;;9.70;99.70;;;;;;5048614;28;20476;-68
2021/04/01 03:51:35;;;;;;;17.77;7.77;;;9.70;99.70;;;;;;5048759;28;20479;-68
2021/04/01 03:54:01;;;;;;;18.77;7.83;;;9.50;99.70;;;;;;5048847;28;20471;-67
2021/04/01 03:56:27;;;;;;;14.77;8.37;;;9.50;99.70;;;;;;5048315;28;20959;-67
2021/04/01 03:59:01;;;;;;;17.83;7.83;;;9.60;99.70;;;;;;5048473;28;20463;-68
2021/04/01 04:01:59;;;;;;;12.53;7.83;;;9.60;99.70;;;;;;5048966;28;20439;-68
2021/04/01 04:04:36;;;;;;;18.80;8.20;;;9.40;99.70;;;;;;5048954;28;20513;-68
2021/04/01 04:10:06;;;;;;;12.80;8.10;;;9.50;99.70;;;;;;5052164;28;20446;-68
2021/04/01 04:12:44;;;;;;;19.60;7.80;;;9.50;99.70;;;;;;5052168;28;21000;-68
2021/04/01 04:15:13;;;;;;;16.23;8.47;;;9.60;99.70;;;;;;5050298;28;20826;-69
2021/04/01 04:17:39;;;;;;;14.27;8.00;;;9.60;99.70;;;;;;5051814;28;20463;-68
2021/04/01 04:20:07;;;;;;;20.40;8.43;;;9.50;99.70;;;;;;5051942;28;20448;-69
2021/04/01 04:22:34;;;;;;;16.50;7.90;;;9.50;99.70;;;;;;5052155;28;20450;-68
2021/04/01 04:25:01;;;;;;;15.30;8.40;;;9.40;99.70;;;;;;5051512;28;20448;-68
2021/04/01 04:27:44;;;;;;;20.93;7.70;;;9.30;99.70;;;;;;5051770;28;20547;-68
2021/04/01 04:30:13;;;;;;;14.93;8.50;;;9.30;99.70;;;;;;5051955;28;20448;-68
2021/04/01 04:32:39;;;;;;;16.40;8.30;;;9.30;99.70;;;;;;5051889;28;20547;-69
2021/04/01 04:35:06;;;;;;;15.07;8.20;;;9.30;99.70;;;;;;5051216;28;20933;-69
2021/04/01 04:37:32;;;;;;;17.90;8.50;;;9.30;99.70;;;;;;5051317;28;20471;-68
2021/04/01 04:39:58;;;;;;;15.43;8.23;;;9.20;99.70;;;;;;5051664;28;20958;-69
2021/04/01 04:42:25;;;;;;;15.83;8.00;;;9.20;99.70;;;;;;5051766;28;20517;-68
2021/04/01 04:44:51;;;;;;;17.53;8.37;;;9.10;99.70;;;;;;5051711;28;20919;-68
2021/04/01 04:47:18;;;;;;;15.23;8.60;;;9.10;99.70;;;;;;5051051;28;20501;-68
2021/04/01 04:49:44;;;;;;;18.57;7.93;;;9.10;99.70;;;;;;5051425;28;20450;-68
2021/04/01 04:52:10;;;;;;;17.63;8.33;;;9.10;99.70;;;;;;5051574;28;20483;-69
2021/04/01 04:54:37;;;;;;;19.10;8.37;;;9.10;99.70;;;;;;5051466;28;20451;-68
2021/04/01 04:57:05;;;;;;;17.57;8.57;;;9.10;99.70;;;;;;5050477;28;20460;-67
2021/04/01 04:59:34;;;;;;;15.57;8.33;;;9.10;99.70;;;;;;5051101;28;20597;-69
2021/04/01 05:04:47;;;;;;;15.53;7.60;;;9.00;99.70;;;;;;5051288;28;20943;-68
2021/04/01 05:07:13;;;;;;;18.03;8.20;;;8.90;99.70;;;;;;5050304;28;20483;-68
2021/04/01 05:09:39;;;;;;;18.50;8.70;;;8.90;99.70;;;;;;5051027;28;20941;-68
2021/04/01 05:12:07;;;;;;;18.27;9.70;;;8.80;99.70;;;;;;5050999;28;21019;-68
2021/04/01 05:14:33;;;;;;;23.20;8.70;;;8.90;99.70;;;;;;5049737;28;20482;-69
2021/04/01 05:17:00;;;;;;;14.20;8.40;;;8.90;99.70;;;;;;5050186;28;20451;-69
2021/04/01 05:19:27;;;;;;;21.83;8.87;;;8.90;99.70;;;;;;5050488;28;20844;-68
2021/04/01 05:21:58;;;;;;;17.00;8.53;;;9.00;99.70;;;;;;5050940;28;20451;-68
2021/04/01 05:24:27;;;;;;;14.47;8.03;;;9.10;99.70;;;;;;5050675;28;20459;-68
2021/04/01 05:29:56;;;;;;;17.67;9.10;;;9.30;99.70;;;;;;5050693;28;20446;-68
2021/04/01 05:32:23;;;;;;;18.63;9.10;;;9.20;99.70;;;;;;5050654;28;20856;-68
2021/04/01 05:34:49;;;;;;;19.80;9.20;;;9.20;99.70;;;;;;5050530;28;20827;-69
2021/04/01 05:37:16;;;;;;;17.33;9.13;;;9.20;99.70;;;;;;5049580;28;20443;-69
2021/04/01 05:39:42;;;;;;;16.53;8.50;;;9.30;99.70;;;;;;5050534;28;20458;-68
2021/04/01 05:42:09;;;;;;;22.67;9.80;;;9.40;99.70;;;;;;5050575;28;20446;-68
2021/04/01 05:44:38;;;;;;;16.93;8.63;;;9.30;99.70;;;;;;5050359;28;20448;-68
2021/04/01 05:47:13;;;;;;;14.67;9.20;;;9.40;99.70;;;;;;5049619;28;20447;-67
2021/04/01 05:49:58;;;;;;;15.97;8.40;;;9.30;99.70;;;;;;5051255;28;20467;-69
2021/04/01 05:58:15;;;;;;;17.37;8.93;;;9.70;99.70;;;;;;5049338;28;20489;-70
2021/04/01 06:03:39;;;;;;;17.03;9.50;;;9.90;99.70;;;;;;5037069;28;20459;-69
2021/04/01 06:06:08;;;;;;;17.90;8.57;;;9.90;99.70;;;;;;5049520;28;20528;-69
2021/04/01 06:08:41;;;;;;;23.73;9.43;;;9.90;99.70;;;;;;5049607;28;20483;-70
2021/04/01 06:11:08;;;;;;;17.90;9.27;;;10.00;99.70;;;;;;5049842;28;20514;-70
2021/04/01 06:13:44;;;;;;;18.60;9.77;;;10.10;99.70;;;;;;5049871;28;20440;-70
2021/04/01 06:16:12;;;;;;;19.43;9.90;;;10.20;99.70;;;;;;5048115;28;20474;-70
2021/04/01 06:18:42;;;;;;;21.30;9.77;;;10.30;99.70;;;;;;5049546;28;20467;-70
2021/04/01 06:21:12;;;;;;;17.20;9.60;;;10.40;99.70;;;;;;5049979;28;20501;-70
2021/04/01 06:23:42;;;;;;;21.60;10.00;;;10.40;99.70;;;;;;5049694;28;20447;-70
2021/04/01 06:26:16;;;;;;;22.10;11.00;;;10.40;99.70;;;;;;5049241;28;20444;-70
2021/04/01 06:28:46;;;;;;;21.40;11.00;;;10.50;99.70;;;;;;5049390;28;20484;-70
2021/04/01 06:31:15;;;;;;;22.13;10.53;;;10.60;99.70;;;;;;5049060;28;20967;-69
2021/04/01 06:33:47;;;;;;;25.03;11.00;;;10.70;99.70;;;;;;5049664;28;20447;-69
2021/04/01 06:36:19;;;;;;;19.87;10.20;;;10.80;99.70;;;;;;5048956;28;20497;-69
2021/04/01 06:38:46;;;;;;;25.30;10.37;;;11.00;99.70;;;;;;5049225;28;20472;-70
2021/04/01 06:41:20;;;;;;;18.90;9.37;;;11.00;99.70;;;;;;5049375;28;20534;-70
2021/04/01 06:43:58;;;;;;;19.80;9.60;;;11.20;99.70;;;;;;5049464;28;20448;-70
2021/04/01 06:46:26;;;;;;;21.10;9.97;;;11.50;99.70;;;;;;5048777;28;20534;-69
2021/04/01 06:49:26;;;;;;;16.70;9.30;;;11.70;99.50;;;;;;5048775;28;20479;-70
2021/04/01 06:51:58;;;;;;;19.47;9.27;;;12.20;98.30;;;;;;5049342;28;20541;-70
2021/04/01 06:54:33;;;;;;;20.83;9.10;;;12.70;97.80;;;;;;5049326;28;20439;-69
2021/04/01 06:57:24;;;;;;;18.63;9.13;;;13.10;95.40;;;;;;5048617;28;20542;-70
2021/04/01 07:00:02;;;;;;;17.53;9.30;;;13.40;95.60;;;;;;5049458;28;20551;-70
2021/04/01 07:02:34;;;;;;;19.80;9.00;;;13.80;92.90;;;;;;5049518;28;20439;-70
2021/04/01 07:05:18;;;;;;;19.70;9.57;;;14.40;92.30;;;;;;5048911;28;20447;-70
2021/04/01 07:07:52;;;;;;;17.50;9.57;;;14.80;90.40;;;;;;5048741;28;20555;-70
2021/04/01 07:10:23;;;;;;;18.00;8.97;;;15.40;90.30;;;;;;5045120;28;20517;-70
2021/04/01 07:12:50;;;;;;;17.03;9.60;;;14.90;89.60;;;;;;5048670;28;20490;-70
2021/04/01 07:15:23;;;;;;;16.00;9.10;;;14.40;90.90;;;;;;5045453;28;20460;-67
2021/04/01 07:17:55;;;;;;;14.37;9.20;;;14.50;92.70;;;;;;5045666;28;21081;-70
2021/04/01 07:20:35;;;;;;;17.47;9.83;;;15.00;90.50;;;;;;5046846;28;20450;-70
2021/04/01 07:23:50;;;;;;;16.07;8.60;;;15.10;89.10;;;;;;5046021;28;20536;-69
2021/04/01 07:46:43;;;;;;;18.53;9.20;;;17.90;83.30;;;;;;5125883;27;20433;-70
2021/04/01 07:49:17;;;;;;;15.37;9.53;;;18.50;80.70;;;;;;5138801;27;20458;-67
2021/04/01 07:51:58;;;;;;;16.40;9.83;;;18.30;80.80;;;;;;5149513;27;20462;-67
2021/04/01 07:54:34;;;;;;;15.00;9.20;;;18.50;80.90;;;;;;5133545;27;20536;-69
2021/04/01 07:57:14;;;;;;;15.20;9.53;;;17.90;81.30;;;;;;5133155;27;20481;-69
2021/04/01 07:59:58;;;;;;;16.77;10.00;;;17.20;83.70;;;;;;5137226;27;20450;-70
2021/04/01 08:05:09;;;;;;;16.87;9.23;;;16.60;87.30;;;;;;5090377;27;20479;-70
2021/04/01 08:07:39;;;;;;;20.20;10.27;;;16.80;85.30;;;;;;5124136;27;20837;-69
2021/04/01 08:10:09;;;;;;;22.50;10.37;;;16.60;86.90;;;;;;5142769;27;20448;-69
2021/04/01 08:12:42;;;;;;;18.40;10.27;;;16.60;85.60;;;;;;5168136;27;20525;-70
2021/04/01 08:15:12;;;;;;;17.57;10.30;;;16.60;86.00;;;;;;5141640;27;20531;-69
2021/04/01 08:17:47;;;;;;;17.47;10.17;;;16.50;86.20;;;;;;5141428;27;20463;-70
2021/04/01 08:20:19;;;;;;;23.50;10.60;;;16.40;87.30;;;;;;5143506;27;20446;-70
2021/04/01 08:22:54;;;;;;;21.20;9.23;;;16.50;87.70;;;;;;5140953;27;20550;-70
2021/04/01 08:25:24;;;;;;;19.97;9.63;;;16.70;87.80;;;;;;5130245;27;20444;-70
2021/04/01 08:28:03;;;;;;;19.67;9.90;;;16.90;86.80;;;;;;5143237;27;20474;-70
2021/04/01 08:33:30;;;;;;;20.80;10.33;;;17.60;85.30;;;;;;5136878;27;20573;-70
2021/04/01 08:35:58;;;;;;;23.60;9.30;;;18.00;84.20;;;;;;5125892;28;20446;-70
2021/04/01 08:38:25;;;;;;;25.30;9.97;;;18.60;83.00;;;;;;5134094;27;20464;-70
2021/04/01 08:40:52;;;;;;;21.93;9.10;;;18.40;82.50;;;;;;5141548;27;20438;-70
2021/04/01 08:43:39;;;;;;;20.23;8.60;;;18.40;82.70;;;;;;5136106;27;20460;-67
2021/04/01 08:46:44;;;;;;;16.03;8.83;;;18.50;83.40;;;;;;5117528;27;20516;-70
2021/04/01 08:49:32;;;;;;;18.20;9.13;;;18.80;82.10;;;;;;5127754;27;20468;-70
2021/04/01 08:52:40;;;;;;;20.70;9.70;;;18.80;82.00;;;;;;5122071;27;20444;-70
2021/04/01 08:55:13;;;;;;;19.10;8.80;;;18.90;83.00;;;;;;5108358;27;20471;-69
2021/04/01 08:57:53;;;;;;;15.00;8.43;;;18.80;82.60;;;;;;5130003;27;20460;-69
2021/04/01 09:00:21;;;;;;;17.80;8.90;;;18.90;81.70;;;;;;5124395;27;20444;-70
2021/04/01 09:02:50;;;;;;;15.73;8.70;;;18.50;82.90;;;;;;5127654;27;20436;-70
2021/04/01 09:05:18;;;;;;;19.17;9.40;;;18.40;83.20;;;;;;5113327;27;20433;-70
2021/04/01 09:07:47;;;;;;;15.43;9.33;;;18.50;83.00;;;;;;5111809;28;20785;-68
2021/04/01 09:10:17;;;;;;;15.23;9.00;;;18.60;83.00;;;;;;5123436;27;21089;-70
2021/04/01 09:12:48;;;;;;;20.37;9.30;;;18.80;82.10;;;;;;5120929;27;20467;-69
2021/04/01 09:17:59;;;;;;;18.33;9.73;;;19.10;81.40;;;;;;5122452;27;20463;-70
2021/04/01 09:20:26;;;;;;;19.93;9.27;;;19.70;80.90;;;;;;5119490;27;20464;-70
2021/04/01 09:22:54;;;;;;;17.63;9.80;;;19.60;79.90;;;;;;5120472;27;20432;-70
2021/04/01 09:25:22;;;;;;;19.57;10.13;;;19.70;79.90;;;;;;5121524;27;20448;-68
2021/04/01 09:27:51;;;;;;;18.27;9.67;;;19.70;79.60;;;;;;5120428;27;20504;-69
2021/04/01 09:30:21;;;;;;;18.17;8.90;;;20.10;79.30;;;;;;5121109;27;20439;-70
2021/04/01 09:32:50;;;;;;;17.80;8.93;;;19.80;80.10;;;;;;5118997;27;20938;-70
2021/04/01 09:35:17;;;;;;;16.07;8.47;;;19.90;79.10;;;;;;5120175;27;20476;-70
2021/04/01 09:37:52;;;;;;;14.87;8.37;;;20.10;80.60;;;;;;5122296;27;20469;-70
2021/04/01 09:40:19;;;;;;;19.60;8.87;;;20.20;77.50;;;;;;5119143;27;20444;-69
2021/04/01 09:42:46;;;;;;;12.03;7.37;;;20.30;78.80;;;;;;5114693;27;20783;-69
2021/04/01 09:45:14;;;;;;;14.40;7.80;;;20.70;77.10;;;;;;5131511;27;20436;-71
2021/04/01 09:47:47;;;;;;;22.90;8.10;;;20.90;76.80;;;;;;5124726;27;20465;-70
2021/04/01 09:50:15;;;;;;;13.20;7.53;;;21.00;76.30;;;;;;5118820;27;20436;-71
2021/04/01 09:52:54;;;;;;;15.87;7.43;;;21.00;75.00;;;;;;5120177;27;20443;-69
2021/04/01 09:55:21;;;;;;;13.27;7.07;;;21.00;75.00;;;;;;5131277;27;21034;-68
2021/04/01 09:57:50;;;;;;;11.13;7.33;;;21.20;75.00;;;;;;5121078;27;20464;-70
2021/04/01 10:00:27;;;;;;;10.30;6.93;;;21.20;74.20;;;;;;5117951;27;20445;-70
2021/04/01 10:03:03;;;;;;;13.80;7.13;;;21.10;76.40;;;;;;5122157;27;20441;-71
2021/04/01 10:05:33;;;;;;;15.50;7.47;;;21.10;76.60;;;;;;5109673;27;20453;-70
2021/04/01 10:08:02;;;;;;;20.37;7.70;;;21.00;75.00;;;;;;5122969;27;20457;-70
2021/04/01 10:10:36;;;;;;;18.00;7.93;;;21.00;75.10;;;;;;5118768;27;20445;-70
2021/04/01 10:13:15;;;;;;;17.77;7.97;;;20.80;76.50;;;;;;5117924;27;20441;-69
2021/04/01 10:15:42;;;;;;;15.33;8.27;;;20.60;76.80;;;;;;5119119;27;20493;-69
2021/04/01 10:18:10;;;;;;;12.67;7.23;;;20.40;77.10;;;;;;5118637;27;20469;-70
2021/04/01 10:20:37;;;;;;;14.87;7.03;;;20.20;78.40;;;;;;5111482;27;20449;-70
2021/04/01 10:23:07;;;;;;;13.20;6.90;;;20.20;78.90;;;;;;5120771;27;20470;-68
2021/04/01 10:25:45;;;;;;;16.00;7.80;;;20.30;78.90;;;;;;5123437;27;20441;-69
2021/04/01 10:28:25;;;;;;;16.73;7.70;;;20.50;79.40;;;;;;5121750;27;21000;-69
2021/04/01 10:30:54;;;;;;;15.73;8.23;;;20.30;79.60;;;;;;5123345;27;20448;-70
2021/04/01 10:33:27;;;;;;;13.30;7.10;;;20.20;79.60;;;;;;5124505;27;20987;-70
2021/04/01 10:35:55;;;;;;;18.07;7.90;;;20.10;80.10;;;;;;5128066;27;20444;-69
2021/04/01 10:38:23;;;;;;;18.23;7.43;;;20.00;80.50;;;;;;5130735;27;20460;-69
2021/04/01 10:40:50;;;;;;;18.07;8.73;;;20.00;79.00;;;;;;5131639;27;20440;-70
2021/04/01 10:43:19;;;;;;;16.60;7.73;;;20.00;79.10;;;;;;5129343;27;20513;-70
2021/04/01 10:45:46;;;;;;;16.60;7.80;;;20.10;80.30;;;;;;5130941;27;20817;-69
2021/04/01 10:48:23;;;;;;;24.27;8.60;;;20.30;78.80;;;;;;5126519;27;20543;-70
2021/04/01 10:50:51;;;;;;;14.27;7.63;;;20.10;78.80;;;;;;5128183;27;20437;-70
2021/04/01 10:53:18;;;;;;;17.53;7.50;;;19.90;79.40;;;;;;5128305;27;20448;-70
2021/04/01 10:55:45;;;;;;;14.87;8.07;;;20.10;79.40;;;;;;5126433;27;20436;-69
2021/04/01 10:58:12;;;;;;;14.47;7.80;;;20.30;78.80;;;;;;5126964;27;20495;-70
2021/04/01 11:00:40;;;;;;;13.43;6.90;;;20.40;78.30;;;;;;5129849;27;20958;-69
2021/04/01 11:03:12;;;;;;;15.27;7.40;;;20.50;78.10;;;;;;5128418;27;20496;-70
2021/04/01 11:05:40;;;;;;;14.40;7.50;;;20.50;78.30;;;;;;5128944;27;20529;-70
2021/04/01 11:08:07;;;;;;;19.27;7.97;;;20.60;77.40;;;;;;5127721;27;20467;-69
2021/04/01 11:10:34;;;;;;;17.43;7.50;;;20.80;77.10;;;;;;5129655;27;20443;-71
2021/04/01 11:13:04;;;;;;;15.33;7.33;;;20.70;76.90;;;;;;5128503;27;20455;-69
2021/04/01 11:15:32;;;;;;;12.13;7.00;;;20.80;76.30;;;;;;5128219;27;20885;-70
2021/04/01 11:18:03;;;;;;;16.80;7.27;;;20.80;75.80;;;;;;5129156;27;20459;-69
2021/04/01 11:20:33;;;;;;;12.53;7.07;;;20.80;75.40;;;;;;5129616;27;20440;-70
2021/04/01 11:23:05;;;;;;;97.73;30.80;;;20.90;77.00;;;;;;5130794;27;20459;-70
2021/04/01 11:25:31;;;;;;;11.67;7.03;;;20.90;76.10;;;;;;5129152;27;20466;-71
2021/04/01 11:27:57;;;;;;;12.30;6.43;;;20.80;75.50;;;;;;5117042;27;20503;-70
2021/04/01 11:30:40;;;;;;;10.23;6.10;;;20.90;77.10;;;;;;5144925;27;20865;-70
2021/04/01 11:33:08;;;;;;;10.43;5.90;;;20.70;76.10;;;;;;5149384;27;20539;-70
2021/04/01 11:35:37;;;;;;;12.30;6.33;;;20.30;78.00;;;;;;5149221;27;20718;-70
2021/04/01 11:38:08;;;;;;;13.07;6.67;;;20.60;76.10;;;;;;5149023;27;20531;-70
2021/04/01 11:40:35;;;;;;;10.57;6.40;;;20.80;74.50;;;;;;5150005;27;20444;-70
2021/04/01 11:43:02;;;;;;;10.90;6.00;;;21.00;73.70;;;;;;5149249;27;20442;-70
2021/04/01 11:45:33;;;;;;;13.33;6.30;;;20.80;74.50;;;;;;5149960;27;20461;-70
2021/04/01 11:48:01;;;;;;;14.07;6.50;;;20.90;74.60;;;;;;5150251;27;20463;-70
2021/04/01 11:50:28;;;;;;;9.13;5.63;;;20.80;75.60;;;;;;5131107;27;20972;-69
2021/04/01 11:52:56;;;;;;;9.90;5.60;;;20.80;75.70;;;;;;5113603;28;20826;-70
2021/04/01 11:55:23;;;;;;;13.17;5.97;;;20.50;77.70;;;;;;5129289;28;20499;-70
2021/04/01 11:57:50;;;;;;;10.70;6.37;;;20.70;75.60;;;;;;5130478;27;20460;-67
2021/04/01 12:00:21;;;;;;;9.57;5.43;;;20.80;76.60;;;;;;5118359;28;20493;-69
2021/04/01 12:02:53;;;;;;;10.40;5.60;;;21.00;76.50;;;;;;5122358;28;20516;-70
2021/04/01 12:05:20;;;;;;;11.07;6.00;;;21.00;75.80;;;;;;5129183;28;20535;-70
2021/04/01 12:07:48;;;;;;;10.60;5.80;;;21.00;75.00;;;;;;5129322;27;20463;-70
2021/04/01 12:10:15;;;;;;;9.07;5.60;;;21.00;73.50;;;;;;5148637;27;20721;-70
2021/04/01 12:12:41;;;;;;;12.80;6.03;;;20.90;75.60;;;;;;5147720;27;20435;-71
2021/04/01 12:15:08;;;;;;;13.33;5.93;;;20.90;74.60;;;;;;5148071;27;20849;-70
2021/04/01 12:17:37;;;;;;;11.37;6.20;;;20.90;74.50;;;;;;5148451;27;20459;-70
2021/04/01 12:20:10;;;;;;;12.10;5.67;;;20.70;76.90;;;;;;5149038;27;20435;-70
2021/04/01 12:22:39;;;;;;;10.17;5.77;;;20.70;77.40;;;;;;5152772;27;20438;-70
2021/04/01 12:25:09;;;;;;;9.10;5.97;;;20.90;76.00;;;;;;5151429;27;20448;-69
2021/04/01 12:27:35;;;;;;;13.73;5.63;;;21.10;74.10;;;;;;5154121;27;20473;-70
2021/04/01 12:30:04;;;;;;;13.57;5.80;;;21.00;76.10;;;;;;5154059;27;20443;-70
2021/04/01 12:32:32;;;;;;;14.67;5.40;;;21.10;75.80;;;;;;5153977;27;20451;-68
2021/04/01 12:35:10;;;;;;;10.40;5.33;;;21.30;74.90;;;;;;5153577;27;21014;-70
2021/04/01 12:37:37;;;;;;;9.13;5.23;;;21.40;73.80;;;;;;5151947;27;20465;-70
2021/04/01 12:40:19;;;;;;;10.50;5.20;;;21.30;74.80;;;;;;5154087;27;20944;-70
2021/04/01 12:42:46;;;;;;;10.13;5.03;;;21.40;73.40;;;;;;5151828;27;20443;-69
2021/04/01 12:45:21;;;;;;;7.77;4.60;;;21.50;73.20;;;;;;5153528;27;20822;-70
2021/04/01 12:47:47;;;;;;;10.20;5.43;;;21.20;75.80;;;;;;5153031;27;20963;-69
2021/04/01 12:50:15;;;;;;;8.50;5.33;;;21.20;75.10;;;;;;5153106;27;20435;-70
2021/04/01 12:52:51;;;;;;;8.80;5.00;;;21.20;73.20;;;;;;5153828;27;20436;-70
2021/04/01 12:55:38;;;;;;;10.73;5.00;;;21.50;73.50;;;;;;5153088;27;20506;-70
2021/04/01 12:58:09;;;;;;;7.40;4.73;;;21.40;73.00;;;;;;5153687;27;20520;-70
2021/04/01 13:00:42;;;;;;;7.50;4.73;;;21.40;73.10;;;;;;5153557;27;20443;-70
2021/04/01 13:03:08;;;;;;;11.03;5.77;;;21.50;74.00;;;;;;5154091;27;20446;-70
2021/04/01 13:05:38;;;;;;;7.10;4.57;;;21.40;74.80;;;;;;5153222;27;20440;-70
2021/04/01 13:08:20;;;;;;;7.70;4.30;;;21.50;73.50;;;;;;5153428;27;20467;-70
2021/04/01 13:10:47;;;;;;;7.57;4.73;;;21.60;72.50;;;;;;5153465;27;20446;-69
2021/04/01 13:13:13;;;;;;;9.17;4.23;;;21.70;72.80;;;;;;5153602;27;20435;-68
2021/04/01 13:15:40;;;;;;;7.73;4.57;;;21.90;72.00;;;;;;5152162;27;20486;-69
2021/04/01 13:18:07;;;;;;;8.00;4.20;;;22.10;72.00;;;;;;5153301;27;20463;-69
2021/04/01 13:20:34;;;;;;;8.03;4.40;;;22.20;71.10;;;;;;5153307;27;20749;-70
2021/04/01 13:23:13;;;;;;;6.40;4.50;;;22.30;70.40;;;;;;5153749;27;20443;-69
2021/04/01 13:25:39;;;;;;;5.30;4.13;;;22.20;70.30;;;;;;5153163;27;20430;-70
2021/04/01 13:28:08;;;;;;;8.03;4.67;;;22.10;72.60;;;;;;5153259;27;20469;-70
2021/04/01 13:30:36;;;;;;;9.57;4.10;;;22.30;69.60;;;;;;5144504;27;20507;-69
2021/04/01 13:33:10;;;;;;;7.47;4.00;;;22.30;68.60;;;;;;5112266;27;20988;-70
2021/04/01 13:35:40;;;;;;;8.03;4.27;;;22.20;68.70;;;;;;5120932;27;20475;-70
2021/04/01 13:38:10;;;;;;;9.10;4.83;;;22.30;68.40;;;;;;5117195;27;20938;-68
2021/04/01 13:40:39;;;;;;;8.07;4.77;;;22.30;69.10;;;;;;5120764;27;20555;-69